This is the latest recevied weather packets stored in our database for station/object F8BJE-13. If no packets are shown the sender has not sent any weather packets the latest 10 day(s).
| Time | Temp. | Humidity | Pressure | Rain* | Wind** | Luminosity | Snow |
|---|---|---|---|---|---|---|---|
| 1787783403 | 21.67° C | 62% | 1013.4 hPa | 0 mm | - | - | - |
| 1787781603 | 20.56° C | 63% | 1013.3 hPa | 0 mm | - | - | - |
| 1787779803 | 20.56° C | 62% | 1013.4 hPa | 0 mm | - | - | - |
| 1787778003 | 21.11° C | 61% | 1013.2 hPa | 0 mm | - | - | - |
| 1787776203 | 21.67° C | 59% | 1013.3 hPa | 0 mm | - | - | - |
| 1787774403 | 22.22° C | 55% | 1013.4 hPa | 0 mm | - | - | - |
| 1787772603 | 22.78° C | 53% | 1013.4 hPa | 0 mm | - | - | - |
| 1787770803 | 24.44° C | 50% | 1013.2 hPa | 0 mm | - | - | - |
| 1787769003 | 25.56° C | 42% | 1013.3 hPa | 0 mm | - | - | - |
| 1787767203 | 26.67° C | 40% | 1013.5 hPa | 0 mm | - | - | - |
| 1787765403 | 27.22° C | 37% | 1013.4 hPa | 0 mm | - | - | - |
| 1787763603 | 28.33° C | 35% | 1013.4 hPa | 0 mm | - | - | - |
| 1787761803 | 30.56° C | 31% | 1013.8 hPa | 0 mm | - | - | - |
| 1787760003 | 32.78° C | 28% | 1014.3 hPa | 0 mm | - | - | - |
| 1787758203 | 31.11° C | 31% | 1014.3 hPa | 0 mm | - | - | - |
| 1787756403 | 32.78° C | 30% | 1014.6 hPa | 0 mm | - | - | - |
| 1787754603 | 32.78° C | 31% | 1014.6 hPa | 0 mm | - | - | - |
| 1787752803 | 30.56° C | 32% | 1015.2 hPa | 0 mm | - | - | - |
| 1787751003 | 30° C | 34% | 1015.6 hPa | 0 mm | - | - | - |
| 1787749203 | 31.67° C | 33% | 1016.3 hPa | 0 mm | - | - | - |
| 1787747403 | 31.11° C | 35% | 1016.1 hPa | 0 mm | - | - | - |
| 1787745603 | 32.78° C | 33% | 1016.6 hPa | 0 mm | - | - | - |
| 1787743803 | 31.67° C | 33% | 1017 hPa | 0 mm | - | - | - |
| 1787742003 | 31.11° C | 34% | 1017.2 hPa | 0 mm | - | - | - |
| 1787740203 | 31.11° C | 36% | 1017.6 hPa | 0 mm | - | - | - |
* Rain latest hour (hover to see other rain measurements)
** Current wind speed in m/s (hover to see current wind gust speed)